Terminal Aerodrome Forecast
Issued by NWS

Home | Current Version | Previous Version | Text Only | Print | Product List | Glossary Off
Versions: 1 2 3 4 5 6 7 8 9 10 11 12 13 14 15

000
FTUS43 KTOP 270500
TAFMHK
TAF
KMHK 270520Z 2706/2806 03011KT P6SM BKN008 OVC012
     FM270800 02007KT P6SM BKN015 OVC025
     FM271200 02005KT P6SM SCT035=

USA.gov is the U.S. government's official web portal to all federal, state and local government web resources and services.